Detalii statie Pioneer South Africa DEMO [00001DA1]

Toti senzorii

Date Solar radiation Dgt [W/mm]Precipitatii [mm]Viteza vantului [m/s]Voltaj baterie [mV]Leaf Wetness [Min]HC Air temperature [C]HC Relative humidity [%]Punctul de roua [C]
mediesumamediemaxultimatimpmedieminmaxmediemediemin
2019-04-19 19:00:00 0 0 0.1 0.7 6474 21.44 20.4 22.52 40 7 6.3
2019-04-19 20:00:00 0 0 0 0.5 6444 19.46 18.94 20.19 47.11 7.7 7.4
2019-04-19 21:00:00 0 0 0.1 0.5 6444 18.24 17.74 19 54.45 8.7 8.4
2019-04-19 22:00:00 0 0 0 0.1 6434 17.66 17.38 18.01 56.88 8.8 8.6
2019-04-19 23:00:00 0 0 0 0.1 6424 17.19 16.88 17.36 58.21 8.7 8.4
2019-04-20 00:00:00 0 0 0 0 6424 16.24 15.41 16.77 62.33 8.8 8.6
2019-04-20 01:00:00 0 0 0 0 6406 15.05 14.77 15.32 69.27 9.3 9
2019-04-20 02:00:00 0 0 0 0 6416 14.84 14.62 15.16 70.92 9.4 9.1
2019-04-20 03:00:00 0 0 0 0 6406 14.62 14.43 14.92 76.29 10.3 9.9
2019-04-20 04:00:00 0 0 0 0 6416 14.59 14.28 15.08 78.09 10.6 10.4
2019-04-20 05:00:00 0 0 0 0 6396 14.09 13.81 14.34 80.81 10.7 10.5
2019-04-20 06:00:00 0 0 0 0 6406 13.83 13.63 13.97 86.04 11.4 11
2019-04-20 07:00:00 0 0 0 0 6396 13.7 13.58 13.8 92.1 12.3 12
2019-04-20 08:00:00 63 0 0 0 6698 15.96 14.04 19.06 84.67 13.1 12.9
2019-04-20 09:00:00 147 0 0 0.1 6894 19.95 18.63 21.3 65.65 13.1 13
2019-04-20 10:00:00 441 0 0.2 0.6 6894 22.14 20.73 23.32 55.14 12.5 11.9
2019-04-20 11:00:00 679 0 0.3 0.7 6884 24.34 23.06 25.47 47.05 12 11.7
2019-04-20 12:00:00 755 0 0.4 0.9 6884 25.63 24.86 26.57 42.53 11.7 11.1
2019-04-20 13:00:00 724 0 0.7 1.7 6884 26.84 25.96 27.65 39.48 11.6 10.9
2019-04-20 14:00:00 639 0 0.7 1.4 6884 26.88 25.6 27.99 38.56 11.4 11
2019-04-20 15:00:00 476 0 0.6 1.4 6874 27.07 25.41 28.54 38.01 11.3 10.8
2019-04-20 16:00:00 314 0 0.3 0.8 6874 26.6 25.74 27.17 37.87 10.8 10.2
2019-04-20 17:00:00 63 0 0.4 1.1 6698 24.99 24.4 25.98 41.39 10.7 10.5
2019-04-20 18:00:00 9 0 0 0 6582 23.01 21.33 24.21 48.76 11.3 10.8
2019-04-20 19:00:00 0 0 0.1 0.5 6484 21.21 20.93 21.4 54.68 11.5 11
2019-04-20 20:00:00 0 0 0 0.2 6474 20.1 19.39 20.7 51.11 9.4 8.5
2019-04-20 21:00:00 0 0 0 0.2 6444 19 18.64 19.33 50.85 8.4 8.1
2019-04-20 22:00:00 0 0 0 0 6444 18.23 17.92 18.6 52.82 8.3 8
2019-04-20 23:00:00 0 0 0 0 6424 16.69 15.78 17.79 63.04 9.4 8.3
2019-04-21 00:00:00 0 0 0 0 6424 15.75 15.52 16.08 66.16 9.2 8
2019-04-21 01:00:00 0 0 0 0 6424 16.33 15.98 16.77 57.78 7.8 7.6
2019-04-21 02:00:00 0 0 0 0 6416 17.03 16.63 17.19 55.66 7.8 7.5
2019-04-21 03:00:00 0 0 0 0 6416 15.73 15.05 16.59 67.9 9.6 8.7
2019-04-21 04:00:00 0 0 0.1 0.2 6416 15.92 14.85 16.59 72.04 10.7 10.3
2019-04-21 05:00:00 0 0 0.1 0.2 6416 16.37 15.85 16.66 69.86 10.7 10.6
2019-04-21 06:00:00 0 0 0.1 0.3 6416 15.36 14.94 15.75 74.73 10.7 10.6
2019-04-21 07:00:00 0 0 0 0.2 6406 14.66 14.5 14.93 77.67 10.6 10.4
2019-04-21 08:00:00 45 0 0.1 0.4 6640 16.01 15.04 17.51 71.35 10.7 10.4
2019-04-21 09:00:00 145 0 0.1 0.2 6894 19.32 17.66 20.78 60.34 11.1 10.9
2019-04-21 10:00:00 438 0 0.1 0.3 6894 22.53 20.48 24.21 52.25 12.1 11.9
2019-04-21 11:00:00 665 0 0.3 0.8 6884 24.56 23.56 25.08 45.26 11.7 11.1
2019-04-21 12:00:00 728 0 0.4 1.1 6884 25.2 24.74 26.26 43.23 11.5 11.1
2019-04-21 13:00:00 664 0 0.6 1.3 6834 26.17 25.11 27.04 40.56 11.4 10.9
2019-04-21 14:00:00 535 0 0.5 1.4 6894 25.76 24.71 27.11 39.37 10.5 10
2019-04-21 15:00:00 442 0 0.6 1.1 6884 26.35 24.46 27.7 37.48 10.3 10.2
2019-04-21 16:00:00 258 0 0.2 0.5 6864 25.74 23.74 27.67 41.46 11.3 10.1
2019-04-21 17:00:00 79 0 0.2 2.1 6708 23.77 20.85 24.68 47.27 11.6 10.3
2019-04-21 18:00:00 22 0 1.3 2.6 6610 18.21 17.2 19.67 61.78 10.6 10.2